sensor_id;sensor_type;location;lat;lon;timestamp;temperature;humidity
18974;DHT22;9621;48.690;9.466;2023-04-12T00:00:18;5.00;99.90
18974;DHT22;9621;48.690;9.466;2023-04-12T00:02:45;5.00;99.90
18974;DHT22;9621;48.690;9.466;2023-04-12T00:05:18;5.00;99.90
18974;DHT22;9621;48.690;9.466;2023-04-12T00:07:48;5.00;99.90
18974;DHT22;9621;48.690;9.466;2023-04-12T00:10:18;5.00;99.90
18974;DHT22;9621;48.690;9.466;2023-04-12T00:12:45;5.10;99.90
18974;DHT22;9621;48.690;9.466;2023-04-12T00:15:12;5.10;99.90
18974;DHT22;9621;48.690;9.466;2023-04-12T00:17:40;5.10;99.90
18974;DHT22;9621;48.690;9.466;2023-04-12T00:20:07;5.20;99.90
18974;DHT22;9621;48.690;9.466;2023-04-12T00:22:37;5.20;99.90
18974;DHT22;9621;48.690;9.466;2023-04-12T00:25:06;5.20;99.90
18974;DHT22;9621;48.690;9.466;2023-04-12T00:27:32;5.30;99.90
18974;DHT22;9621;48.690;9.466;2023-04-12T00:30:00;5.30;99.90
18974;DHT22;9621;48.690;9.466;2023-04-12T00:32:27;5.30;99.90
18974;DHT22;9621;48.690;9.466;2023-04-12T00:34:54;5.30;99.90
18974;DHT22;9621;48.690;9.466;2023-04-12T00:37:21;5.40;99.90
18974;DHT22;9621;48.690;9.466;2023-04-12T00:39:48;5.40;99.90
18974;DHT22;9621;48.690;9.466;2023-04-12T00:42:17;5.40;99.90
18974;DHT22;9621;48.690;9.466;2023-04-12T00:44:43;5.40;99.90
18974;DHT22;9621;48.690;9.466;2023-04-12T00:47:10;5.50;99.90
18974;DHT22;9621;48.690;9.466;2023-04-12T00:49:37;5.50;99.90
18974;DHT22;9621;48.690;9.466;2023-04-12T00:52:06;5.40;99.90
18974;DHT22;9621;48.690;9.466;2023-04-12T00:54:35;5.50;99.90
18974;DHT22;9621;48.690;9.466;2023-04-12T00:57:02;5.60;99.90
18974;DHT22;9621;48.690;9.466;2023-04-12T00:59:31;5.50;99.90
18974;DHT22;9621;48.690;9.466;2023-04-12T01:01:58;5.50;99.90
18974;DHT22;9621;48.690;9.466;2023-04-12T01:04:25;5.50;99.90
18974;DHT22;9621;48.690;9.466;2023-04-12T01:07:11;5.50;99.90
18974;DHT22;9621;48.690;9.466;2023-04-12T01:09:47;5.50;99.90
18974;DHT22;9621;48.690;9.466;2023-04-12T01:12:22;5.50;99.90
18974;DHT22;9621;48.690;9.466;2023-04-12T01:14:56;5.50;99.90
18974;DHT22;9621;48.690;9.466;2023-04-12T01:17:28;5.50;99.90
18974;DHT22;9621;48.690;9.466;2023-04-12T01:20:00;5.50;99.90
18974;DHT22;9621;48.690;9.466;2023-04-12T01:22:44;5.50;99.90
18974;DHT22;9621;48.690;9.466;2023-04-12T01:25:29;5.40;99.90
18974;DHT22;9621;48.690;9.466;2023-04-12T01:28:03;5.40;99.90
18974;DHT22;9621;48.690;9.466;2023-04-12T01:30:31;5.50;99.90
18974;DHT22;9621;48.690;9.466;2023-04-12T01:33:00;5.40;99.90
18974;DHT22;9621;48.690;9.466;2023-04-12T01:35:31;5.40;99.90
18974;DHT22;9621;48.690;9.466;2023-04-12T01:37:59;5.40;99.90
18974;DHT22;9621;48.690;9.466;2023-04-12T01:40:29;5.50;99.90
18974;DHT22;9621;48.690;9.466;2023-04-12T01:43:08;5.50;99.90
18974;DHT22;9621;48.690;9.466;2023-04-12T01:45:36;5.50;99.90
18974;DHT22;9621;48.690;9.466;2023-04-12T01:48:06;5.50;99.90
18974;DHT22;9621;48.690;9.466;2023-04-12T01:50:40;5.40;99.90
18974;DHT22;9621;48.690;9.466;2023-04-12T01:53:12;5.50;99.90
18974;DHT22;9621;48.690;9.466;2023-04-12T01:55:42;5.40;99.90
18974;DHT22;9621;48.690;9.466;2023-04-12T01:58:14;5.40;99.90
18974;DHT22;9621;48.690;9.466;2023-04-12T02:00:43;5.40;99.90
18974;DHT22;9621;48.690;9.466;2023-04-12T02:03:10;5.40;99.90
18974;DHT22;9621;48.690;9.466;2023-04-12T02:05:38;5.40;99.90
18974;DHT22;9621;48.690;9.466;2023-04-12T02:08:05;5.40;99.90
18974;DHT22;9621;48.690;9.466;2023-04-12T02:10:32;5.50;99.90
18974;DHT22;9621;48.690;9.466;2023-04-12T02:13:01;5.40;99.90
18974;DHT22;9621;48.690;9.466;2023-04-12T02:15:30;5.40;99.90
18974;DHT22;9621;48.690;9.466;2023-04-12T02:17:57;5.40;99.90
18974;DHT22;9621;48.690;9.466;2023-04-12T02:20:24;5.40;99.90
18974;DHT22;9621;48.690;9.466;2023-04-12T02:22:51;5.40;99.90
18974;DHT22;9621;48.690;9.466;2023-04-12T02:25:18;5.40;99.90
18974;DHT22;9621;48.690;9.466;2023-04-12T02:27:45;5.40;99.90
18974;DHT22;9621;48.690;9.466;2023-04-12T02:30:13;5.40;99.90
18974;DHT22;9621;48.690;9.466;2023-04-12T02:32:41;5.40;99.90
18974;DHT22;9621;48.690;9.466;2023-04-12T02:35:11;5.50;99.90
18974;DHT22;9621;48.690;9.466;2023-04-12T02:37:39;5.50;99.90
18974;DHT22;9621;48.690;9.466;2023-04-12T02:40:07;5.50;99.90
18974;DHT22;9621;48.690;9.466;2023-04-12T02:42:36;5.50;99.90
18974;DHT22;9621;48.690;9.466;2023-04-12T02:45:04;5.50;99.90
18974;DHT22;9621;48.690;9.466;2023-04-12T02:47:31;5.50;99.90
18974;DHT22;9621;48.690;9.466;2023-04-12T02:49:59;5.50;99.90
18974;DHT22;9621;48.690;9.466;2023-04-12T02:52:26;5.50;99.90
18974;DHT22;9621;48.690;9.466;2023-04-12T02:54:55;5.50;99.90
18974;DHT22;9621;48.690;9.466;2023-04-12T02:57:22;5.60;99.90
18974;DHT22;9621;48.690;9.466;2023-04-12T02:59:50;5.60;99.90
18974;DHT22;9621;48.690;9.466;2023-04-12T03:02:18;5.50;99.90
18974;DHT22;9621;48.690;9.466;2023-04-12T03:04:45;5.50;99.90
18974;DHT22;9621;48.690;9.466;2023-04-12T03:07:17;5.50;99.90
18974;DHT22;9621;48.690;9.466;2023-04-12T03:09:44;5.50;99.90
18974;DHT22;9621;48.690;9.466;2023-04-12T03:12:12;5.60;99.90
18974;DHT22;9621;48.690;9.466;2023-04-12T03:14:39;5.50;99.90
18974;DHT22;9621;48.690;9.466;2023-04-12T03:17:06;5.60;99.90
18974;DHT22;9621;48.690;9.466;2023-04-12T03:19:33;5.50;99.90
18974;DHT22;9621;48.690;9.466;2023-04-12T03:22:01;5.50;99.90
18974;DHT22;9621;48.690;9.466;2023-04-12T03:24:29;5.60;99.90
18974;DHT22;9621;48.690;9.466;2023-04-12T03:27:00;5.60;99.90
18974;DHT22;9621;48.690;9.466;2023-04-12T03:29:28;5.60;99.90
18974;DHT22;9621;48.690;9.466;2023-04-12T03:31:55;5.60;99.90
18974;DHT22;9621;48.690;9.466;2023-04-12T03:34:24;5.60;99.90
18974;DHT22;9621;48.690;9.466;2023-04-12T03:36:52;5.60;99.90
18974;DHT22;9621;48.690;9.466;2023-04-12T03:39:19;5.60;99.90
18974;DHT22;9621;48.690;9.466;2023-04-12T03:41:48;5.60;99.90
18974;DHT22;9621;48.690;9.466;2023-04-12T03:44:15;5.50;99.90
18974;DHT22;9621;48.690;9.466;2023-04-12T03:46:41;5.50;99.90
18974;DHT22;9621;48.690;9.466;2023-04-12T03:49:09;5.50;99.90
18974;DHT22;9621;48.690;9.466;2023-04-12T03:51:36;5.50;99.90
18974;DHT22;9621;48.690;9.466;2023-04-12T03:54:08;5.50;99.90
18974;DHT22;9621;48.690;9.466;2023-04-12T03:56:35;5.50;99.90
18974;DHT22;9621;48.690;9.466;2023-04-12T03:59:04;5.60;99.90
18974;DHT22;9621;48.690;9.466;2023-04-12T04:01:32;5.50;99.90
18974;DHT22;9621;48.690;9.466;2023-04-12T04:03:59;5.50;99.90
18974;DHT22;9621;48.690;9.466;2023-04-12T04:06:26;5.50;99.90
18974;DHT22;9621;48.690;9.466;2023-04-12T04:08:54;5.60;99.90
18974;DHT22;9621;48.690;9.466;2023-04-12T04:11:21;5.60;99.90
18974;DHT22;9621;48.690;9.466;2023-04-12T04:13:48;5.60;99.90
18974;DHT22;9621;48.690;9.466;2023-04-12T04:16:17;5.60;99.90
18974;DHT22;9621;48.690;9.466;2023-04-12T04:18:44;5.60;99.90
18974;DHT22;9621;48.690;9.466;2023-04-12T04:21:11;5.60;99.90
18974;DHT22;9621;48.690;9.466;2023-04-12T04:23:38;5.60;99.90
18974;DHT22;9621;48.690;9.466;2023-04-12T04:26:10;5.60;99.90
18974;DHT22;9621;48.690;9.466;2023-04-12T04:28:37;5.60;99.90
18974;DHT22;9621;48.690;9.466;2023-04-12T04:31:07;5.60;99.90
18974;DHT22;9621;48.690;9.466;2023-04-12T04:33:36;5.60;99.90
18974;DHT22;9621;48.690;9.466;2023-04-12T04:36:04;5.70;99.90
18974;DHT22;9621;48.690;9.466;2023-04-12T04:38:32;5.70;99.90
18974;DHT22;9621;48.690;9.466;2023-04-12T04:41:00;5.70;99.90
18974;DHT22;9621;48.690;9.466;2023-04-12T04:43:28;5.70;99.90
18974;DHT22;9621;48.690;9.466;2023-04-12T04:45:56;5.70;99.90
18974;DHT22;9621;48.690;9.466;2023-04-12T04:48:23;5.70;99.90
18974;DHT22;9621;48.690;9.466;2023-04-12T04:50:51;5.60;99.90
18974;DHT22;9621;48.690;9.466;2023-04-12T04:53:20;5.70;99.90
18974;DHT22;9621;48.690;9.466;2023-04-12T04:55:47;5.60;99.90
18974;DHT22;9621;48.690;9.466;2023-04-12T04:58:14;5.60;99.90
18974;DHT22;9621;48.690;9.466;2023-04-12T05:00:42;5.60;99.90
18974;DHT22;9621;48.690;9.466;2023-04-12T05:03:10;5.60;99.90
18974;DHT22;9621;48.690;9.466;2023-04-12T05:05:37;5.60;99.90
18974;DHT22;9621;48.690;9.466;2023-04-12T05:08:06;5.70;99.90
18974;DHT22;9621;48.690;9.466;2023-04-12T05:10:32;5.70;99.90
18974;DHT22;9621;48.690;9.466;2023-04-12T05:12:59;5.70;99.90
18974;DHT22;9621;48.690;9.466;2023-04-12T05:15:26;5.70;99.90
18974;DHT22;9621;48.690;9.466;2023-04-12T05:17:53;5.70;99.90
18974;DHT22;9621;48.690;9.466;2023-04-12T05:20:20;5.70;99.90
18974;DHT22;9621;48.690;9.466;2023-04-12T05:22:47;5.70;99.90
18974;DHT22;9621;48.690;9.466;2023-04-12T05:25:16;5.70;99.90
18974;DHT22;9621;48.690;9.466;2023-04-12T05:27:45;5.70;99.90
18974;DHT22;9621;48.690;9.466;2023-04-12T05:30:12;5.80;99.90
18974;DHT22;9621;48.690;9.466;2023-04-12T05:32:39;5.80;99.90
18974;DHT22;9621;48.690;9.466;2023-04-12T05:35:06;5.80;99.90
18974;DHT22;9621;48.690;9.466;2023-04-12T05:37:33;5.80;99.90
18974;DHT22;9621;48.690;9.466;2023-04-12T05:40:00;5.80;99.90
18974;DHT22;9621;48.690;9.466;2023-04-12T05:42:32;5.90;99.90
18974;DHT22;9621;48.690;9.466;2023-04-12T05:44:59;5.90;99.90
18974;DHT22;9621;48.690;9.466;2023-04-12T05:47:26;5.90;99.90
18974;DHT22;9621;48.690;9.466;2023-04-12T05:49:53;5.90;99.90
18974;DHT22;9621;48.690;9.466;2023-04-12T05:52:20;5.90;99.90
18974;DHT22;9621;48.690;9.466;2023-04-12T05:54:47;6.00;99.90
18974;DHT22;9621;48.690;9.466;2023-04-12T05:57:14;6.00;99.90
18974;DHT22;9621;48.690;9.466;2023-04-12T05:59:43;6.10;99.90
18974;DHT22;9621;48.690;9.466;2023-04-12T06:02:10;6.00;99.90
18974;DHT22;9621;48.690;9.466;2023-04-12T06:04:37;6.00;99.90
18974;DHT22;9621;48.690;9.466;2023-04-12T06:07:05;6.10;99.90
18974;DHT22;9621;48.690;9.466;2023-04-12T06:09:32;6.10;99.90
18974;DHT22;9621;48.690;9.466;2023-04-12T06:11:59;6.10;99.90
18974;DHT22;9621;48.690;9.466;2023-04-12T06:14:26;6.10;99.90
18974;DHT22;9621;48.690;9.466;2023-04-12T06:16:54;6.10;99.90
18974;DHT22;9621;48.690;9.466;2023-04-12T06:19:21;6.20;99.90
18974;DHT22;9621;48.690;9.466;2023-04-12T06:21:48;6.20;99.90
18974;DHT22;9621;48.690;9.466;2023-04-12T06:24:15;6.20;99.90
18974;DHT22;9621;48.690;9.466;2023-04-12T06:26:42;6.20;99.90
18974;DHT22;9621;48.690;9.466;2023-04-12T06:29:11;6.20;99.90
18974;DHT22;9621;48.690;9.466;2023-04-12T06:31:38;6.20;99.90
18974;DHT22;9621;48.690;9.466;2023-04-12T06:34:06;6.30;99.90
18974;DHT22;9621;48.690;9.466;2023-04-12T06:36:33;6.30;99.90
18974;DHT22;9621;48.690;9.466;2023-04-12T06:39:01;6.30;99.90
18974;DHT22;9621;48.690;9.466;2023-04-12T06:41:28;6.30;99.90
18974;DHT22;9621;48.690;9.466;2023-04-12T06:43:55;6.40;99.90
18974;DHT22;9621;48.690;9.466;2023-04-12T06:46:25;6.40;99.90
18974;DHT22;9621;48.690;9.466;2023-04-12T06:48:52;6.50;99.90
18974;DHT22;9621;48.690;9.466;2023-04-12T06:51:20;6.60;99.90
18974;DHT22;9621;48.690;9.466;2023-04-12T06:53:47;6.60;99.90
18974;DHT22;9621;48.690;9.466;2023-04-12T06:56:14;6.60;99.90
18974;DHT22;9621;48.690;9.466;2023-04-12T06:58:41;6.70;99.90
18974;DHT22;9621;48.690;9.466;2023-04-12T07:01:08;6.80;99.90
18974;DHT22;9621;48.690;9.466;2023-04-12T07:03:35;6.90;99.90
18974;DHT22;9621;48.690;9.466;2023-04-12T07:06:03;6.90;99.90
18974;DHT22;9621;48.690;9.466;2023-04-12T07:08:34;7.00;99.90
18974;DHT22;9621;48.690;9.466;2023-04-12T07:11:01;7.10;99.90
18974;DHT22;9621;48.690;9.466;2023-04-12T07:13:29;7.10;99.90
18974;DHT22;9621;48.690;9.466;2023-04-12T07:15:56;7.20;99.90
18974;DHT22;9621;48.690;9.466;2023-04-12T07:18:25;7.20;99.90
18974;DHT22;9621;48.690;9.466;2023-04-12T07:20:54;7.30;99.90
18974;DHT22;9621;48.690;9.466;2023-04-12T07:23:21;7.30;99.90
18974;DHT22;9621;48.690;9.466;2023-04-12T07:25:50;7.30;99.90
18974;DHT22;9621;48.690;9.466;2023-04-12T07:28:17;7.40;99.90
18974;DHT22;9621;48.690;9.466;2023-04-12T07:30:44;7.40;99.90
18974;DHT22;9621;48.690;9.466;2023-04-12T07:33:11;7.50;99.90
18974;DHT22;9621;48.690;9.466;2023-04-12T07:35:38;7.60;99.90
18974;DHT22;9621;48.690;9.466;2023-04-12T07:38:05;7.60;99.90
18974;DHT22;9621;48.690;9.466;2023-04-12T07:40:32;7.70;99.90
18974;DHT22;9621;48.690;9.466;2023-04-12T07:43:01;7.70;99.90
18974;DHT22;9621;48.690;9.466;2023-04-12T07:45:28;7.70;99.90
18974;DHT22;9621;48.690;9.466;2023-04-12T07:47:55;7.80;99.90
18974;DHT22;9621;48.690;9.466;2023-04-12T07:50:22;7.80;99.90
18974;DHT22;9621;48.690;9.466;2023-04-12T07:52:48;7.80;99.90
18974;DHT22;9621;48.690;9.466;2023-04-12T07:55:16;7.90;99.90
18974;DHT22;9621;48.690;9.466;2023-04-12T07:57:43;7.90;99.90
18974;DHT22;9621;48.690;9.466;2023-04-12T08:00:12;8.00;99.90
18974;DHT22;9621;48.690;9.466;2023-04-12T08:02:40;8.00;99.90
18974;DHT22;9621;48.690;9.466;2023-04-12T08:05:08;8.00;99.90
18974;DHT22;9621;48.690;9.466;2023-04-12T08:07:35;8.00;99.90
18974;DHT22;9621;48.690;9.466;2023-04-12T08:10:02;8.10;99.90
18974;DHT22;9621;48.690;9.466;2023-04-12T08:12:30;8.20;99.90
18974;DHT22;9621;48.690;9.466;2023-04-12T08:14:57;8.20;99.90
18974;DHT22;9621;48.690;9.466;2023-04-12T08:17:25;8.20;99.90
18974;DHT22;9621;48.690;9.466;2023-04-12T08:19:53;8.40;99.90
18974;DHT22;9621;48.690;9.466;2023-04-12T08:22:19;8.40;99.90
18974;DHT22;9621;48.690;9.466;2023-04-12T08:24:46;8.50;99.90
18974;DHT22;9621;48.690;9.466;2023-04-12T08:27:14;8.60;99.90
18974;DHT22;9621;48.690;9.466;2023-04-12T08:29:41;8.60;99.90
18974;DHT22;9621;48.690;9.466;2023-04-12T08:32:08;8.70;99.90
18974;DHT22;9621;48.690;9.466;2023-04-12T08:34:38;8.80;99.90
18974;DHT22;9621;48.690;9.466;2023-04-12T08:37:05;8.90;99.90
18974;DHT22;9621;48.690;9.466;2023-04-12T08:39:32;8.90;99.90
18974;DHT22;9621;48.690;9.466;2023-04-12T08:42:00;9.00;99.90
18974;DHT22;9621;48.690;9.466;2023-04-12T08:44:33;9.10;99.90
18974;DHT22;9621;48.690;9.466;2023-04-12T08:47:02;9.20;99.90
18974;DHT22;9621;48.690;9.466;2023-04-12T08:49:30;9.40;99.90
18974;DHT22;9621;48.690;9.466;2023-04-12T08:52:02;9.40;99.90
18974;DHT22;9621;48.690;9.466;2023-04-12T08:54:30;9.40;99.90
18974;DHT22;9621;48.690;9.466;2023-04-12T08:56:58;9.50;99.90
18974;DHT22;9621;48.690;9.466;2023-04-12T08:59:27;9.60;99.90
18974;DHT22;9621;48.690;9.466;2023-04-12T09:01:55;9.60;99.90
18974;DHT22;9621;48.690;9.466;2023-04-12T09:04:23;9.70;99.90
18974;DHT22;9621;48.690;9.466;2023-04-12T09:06:50;9.70;99.90
18974;DHT22;9621;48.690;9.466;2023-04-12T09:09:19;9.80;99.90
18974;DHT22;9621;48.690;9.466;2023-04-12T09:11:46;9.80;99.90
18974;DHT22;9621;48.690;9.466;2023-04-12T09:14:24;9.80;99.90
18974;DHT22;9621;48.690;9.466;2023-04-12T09:16:51;9.80;99.90
18974;DHT22;9621;48.690;9.466;2023-04-12T09:19:30;9.80;99.90
18974;DHT22;9621;48.690;9.466;2023-04-12T09:21:57;9.80;99.90
18974;DHT22;9621;48.690;9.466;2023-04-12T09:24:26;9.90;99.90
18974;DHT22;9621;48.690;9.466;2023-04-12T09:27:00;9.90;99.90
18974;DHT22;9621;48.690;9.466;2023-04-12T09:29:28;9.80;99.90
18974;DHT22;9621;48.690;9.466;2023-04-12T09:32:00;9.80;99.90
18974;DHT22;9621;48.690;9.466;2023-04-12T09:34:27;9.80;99.90
18974;DHT22;9621;48.690;9.466;2023-04-12T09:36:54;9.70;99.90
18974;DHT22;9621;48.690;9.466;2023-04-12T09:39:31;9.70;99.90
18974;DHT22;9621;48.690;9.466;2023-04-12T09:42:05;9.70;99.90
18974;DHT22;9621;48.690;9.466;2023-04-12T09:44:32;9.80;99.90
18974;DHT22;9621;48.690;9.466;2023-04-12T09:47:00;9.80;99.90
18974;DHT22;9621;48.690;9.466;2023-04-12T09:49:36;9.90;99.90
18974;DHT22;9621;48.690;9.466;2023-04-12T09:52:04;10.00;99.90
18974;DHT22;9621;48.690;9.466;2023-04-12T09:54:37;10.00;99.90
18974;DHT22;9621;48.690;9.466;2023-04-12T09:57:06;10.00;99.90
18974;DHT22;9621;48.690;9.466;2023-04-12T09:59:36;10.10;99.90
18974;DHT22;9621;48.690;9.466;2023-04-12T10:02:07;10.20;99.90
18974;DHT22;9621;48.690;9.466;2023-04-12T10:04:38;10.20;99.90
18974;DHT22;9621;48.690;9.466;2023-04-12T10:07:05;10.40;99.90
18974;DHT22;9621;48.690;9.466;2023-04-12T10:09:36;10.50;99.90
18974;DHT22;9621;48.690;9.466;2023-04-12T10:12:04;10.60;99.90
18974;DHT22;9621;48.690;9.466;2023-04-12T10:14:31;10.80;99.90
18974;DHT22;9621;48.690;9.466;2023-04-12T10:16:59;11.00;99.90
18974;DHT22;9621;48.690;9.466;2023-04-12T10:19:28;11.10;99.90
18974;DHT22;9621;48.690;9.466;2023-04-12T10:21:55;11.30;99.90
18974;DHT22;9621;48.690;9.466;2023-04-12T10:24:23;11.50;99.90
18974;DHT22;9621;48.690;9.466;2023-04-12T10:26:53;11.70;99.90
18974;DHT22;9621;48.690;9.466;2023-04-12T10:29:24;12.00;99.90
18974;DHT22;9621;48.690;9.466;2023-04-12T10:31:52;12.30;99.90
18974;DHT22;9621;48.690;9.466;2023-04-12T10:34:23;12.70;99.90
18974;DHT22;9621;48.690;9.466;2023-04-12T10:36:51;13.00;99.90
18974;DHT22;9621;48.690;9.466;2023-04-12T10:39:35;13.30;99.90
18974;DHT22;9621;48.690;9.466;2023-04-12T10:42:21;13.50;99.90
18974;DHT22;9621;48.690;9.466;2023-04-12T10:44:49;13.70;99.90
18974;DHT22;9621;48.690;9.466;2023-04-12T10:50:22;14.00;99.90
18974;DHT22;9621;48.690;9.466;2023-04-12T10:53:20;14.10;99.90
18974;DHT22;9621;48.690;9.466;2023-04-12T10:55:49;14.30;99.90
18974;DHT22;9621;48.690;9.466;2023-04-12T10:58:55;14.20;99.90
18974;DHT22;9621;48.690;9.466;2023-04-12T11:01:22;14.20;99.90
18974;DHT22;9621;48.690;9.466;2023-04-12T11:04:09;14.10;99.90
18974;DHT22;9621;48.690;9.466;2023-04-12T11:06:42;13.90;99.90
18974;DHT22;9621;48.690;9.466;2023-04-12T11:09:24;13.90;99.90
18974;DHT22;9621;48.690;9.466;2023-04-12T11:11:56;13.90;99.90
18974;DHT22;9621;48.690;9.466;2023-04-12T11:14:28;13.90;99.90
18974;DHT22;9621;48.690;9.466;2023-04-12T11:17:21;13.80;99.90
18974;DHT22;9621;48.690;9.466;2023-04-12T11:19:53;13.80;99.90
18974;DHT22;9621;48.690;9.466;2023-04-12T11:22:22;13.80;99.90
18974;DHT22;9621;48.690;9.466;2023-04-12T11:24:50;13.80;99.90
18974;DHT22;9621;48.690;9.466;2023-04-12T11:27:18;13.90;99.90
18974;DHT22;9621;48.690;9.466;2023-04-12T11:29:49;13.90;99.90
18974;DHT22;9621;48.690;9.466;2023-04-12T11:32:17;13.90;99.90
18974;DHT22;9621;48.690;9.466;2023-04-12T11:34:45;13.90;99.90
18974;DHT22;9621;48.690;9.466;2023-04-12T11:37:13;13.90;99.90
18974;DHT22;9621;48.690;9.466;2023-04-12T11:39:42;14.00;99.90
18974;DHT22;9621;48.690;9.466;2023-04-12T11:42:13;14.00;99.90
18974;DHT22;9621;48.690;9.466;2023-04-12T11:44:41;14.00;99.90
18974;DHT22;9621;48.690;9.466;2023-04-12T11:47:17;14.00;99.90
18974;DHT22;9621;48.690;9.466;2023-04-12T11:49:46;14.00;99.90
18974;DHT22;9621;48.690;9.466;2023-04-12T11:52:14;14.00;99.90
18974;DHT22;9621;48.690;9.466;2023-04-12T11:54:45;13.90;99.90
18974;DHT22;9621;48.690;9.466;2023-04-12T11:57:14;13.80;99.90
18974;DHT22;9621;48.690;9.466;2023-04-12T11:59:42;13.80;99.90
18974;DHT22;9621;48.690;9.466;2023-04-12T12:02:09;13.70;99.90
18974;DHT22;9621;48.690;9.466;2023-04-12T12:04:39;13.70;99.90
18974;DHT22;9621;48.690;9.466;2023-04-12T12:07:06;13.70;99.90
18974;DHT22;9621;48.690;9.466;2023-04-12T12:09:34;13.80;99.90
18974;DHT22;9621;48.690;9.466;2023-04-12T12:12:01;13.80;99.90
18974;DHT22;9621;48.690;9.466;2023-04-12T12:14:28;13.90;99.90
18974;DHT22;9621;48.690;9.466;2023-04-12T12:16:59;13.90;99.90
18974;DHT22;9621;48.690;9.466;2023-04-12T12:19:27;13.90;99.90
18974;DHT22;9621;48.690;9.466;2023-04-12T12:22:05;13.90;99.90
18974;DHT22;9621;48.690;9.466;2023-04-12T12:24:32;13.90;99.90
18974;DHT22;9621;48.690;9.466;2023-04-12T12:27:00;13.90;99.90
18974;DHT22;9621;48.690;9.466;2023-04-12T12:29:33;13.90;99.90
18974;DHT22;9621;48.690;9.466;2023-04-12T12:32:01;13.90;99.90
18974;DHT22;9621;48.690;9.466;2023-04-12T12:34:31;13.90;99.90
18974;DHT22;9621;48.690;9.466;2023-04-12T12:37:01;13.90;99.90
18974;DHT22;9621;48.690;9.466;2023-04-12T12:39:28;14.00;99.90
18974;DHT22;9621;48.690;9.466;2023-04-12T12:41:55;14.00;99.90
18974;DHT22;9621;48.690;9.466;2023-04-12T12:44:22;14.10;99.90
18974;DHT22;9621;48.690;9.466;2023-04-12T12:46:49;14.20;99.90
18974;DHT22;9621;48.690;9.466;2023-04-12T12:49:16;14.30;99.90
18974;DHT22;9621;48.690;9.466;2023-04-12T12:51:43;14.50;99.90
18974;DHT22;9621;48.690;9.466;2023-04-12T12:54:11;14.70;99.90
18974;DHT22;9621;48.690;9.466;2023-04-12T12:56:38;14.90;99.90
18974;DHT22;9621;48.690;9.466;2023-04-12T12:59:05;14.90;99.90
18974;DHT22;9621;48.690;9.466;2023-04-12T13:01:32;15.10;99.90
18974;DHT22;9621;48.690;9.466;2023-04-12T13:03:59;15.20;99.90
18974;DHT22;9621;48.690;9.466;2023-04-12T13:06:26;15.20;99.90
18974;DHT22;9621;48.690;9.466;2023-04-12T13:08:53;15.30;99.90
18974;DHT22;9621;48.690;9.466;2023-04-12T13:11:22;15.20;99.90
18974;DHT22;9621;48.690;9.466;2023-04-12T13:13:48;15.20;99.90
18974;DHT22;9621;48.690;9.466;2023-04-12T13:16:15;15.10;99.90
18974;DHT22;9621;48.690;9.466;2023-04-12T13:18:42;15.10;99.90
18974;DHT22;9621;48.690;9.466;2023-04-12T13:21:09;15.00;99.90
18974;DHT22;9621;48.690;9.466;2023-04-12T13:23:36;14.90;99.90
18974;DHT22;9621;48.690;9.466;2023-04-12T13:26:04;14.90;99.90
18974;DHT22;9621;48.690;9.466;2023-04-12T13:28:32;14.80;99.90
18974;DHT22;9621;48.690;9.466;2023-04-12T13:30:59;14.80;99.90
18974;DHT22;9621;48.690;9.466;2023-04-12T13:33:26;14.80;99.90
18974;DHT22;9621;48.690;9.466;2023-04-12T13:35:53;14.70;99.90
18974;DHT22;9621;48.690;9.466;2023-04-12T13:38:20;14.70;99.90
18974;DHT22;9621;48.690;9.466;2023-04-12T13:40:47;14.60;99.90
18974;DHT22;9621;48.690;9.466;2023-04-12T13:43:14;14.50;99.90
18974;DHT22;9621;48.690;9.466;2023-04-12T13:45:42;14.40;99.90
18974;DHT22;9621;48.690;9.466;2023-04-12T13:48:10;14.30;99.90
18974;DHT22;9621;48.690;9.466;2023-04-12T13:50:37;14.30;99.90
18974;DHT22;9621;48.690;9.466;2023-04-12T13:53:04;14.20;99.90
18974;DHT22;9621;48.690;9.466;2023-04-12T13:55:31;14.20;99.90
18974;DHT22;9621;48.690;9.466;2023-04-12T13:57:58;14.20;99.90
18974;DHT22;9621;48.690;9.466;2023-04-12T14:00:25;14.20;99.90
18974;DHT22;9621;48.690;9.466;2023-04-12T14:02:53;14.20;99.90
18974;DHT22;9621;48.690;9.466;2023-04-12T14:05:21;14.20;99.90
18974;DHT22;9621;48.690;9.466;2023-04-12T14:07:47;14.20;99.90
18974;DHT22;9621;48.690;9.466;2023-04-12T14:10:16;14.30;99.90
18974;DHT22;9621;48.690;9.466;2023-04-12T14:12:44;14.30;99.90
18974;DHT22;9621;48.690;9.466;2023-04-12T14:15:11;14.40;99.90
18974;DHT22;9621;48.690;9.466;2023-04-12T14:17:38;14.50;99.90
18974;DHT22;9621;48.690;9.466;2023-04-12T14:20:08;14.50;99.90
18974;DHT22;9621;48.690;9.466;2023-04-12T14:22:35;14.50;99.90
18974;DHT22;9621;48.690;9.466;2023-04-12T14:25:03;14.50;99.90
18974;DHT22;9621;48.690;9.466;2023-04-12T14:27:30;14.50;99.90
18974;DHT22;9621;48.690;9.466;2023-04-12T14:29:57;14.50;99.90
18974;DHT22;9621;48.690;9.466;2023-04-12T14:32:23;14.50;99.90
18974;DHT22;9621;48.690;9.466;2023-04-12T14:34:50;14.50;99.90
18974;DHT22;9621;48.690;9.466;2023-04-12T14:37:19;14.50;99.90
18974;DHT22;9621;48.690;9.466;2023-04-12T14:39:45;14.40;99.90
18974;DHT22;9621;48.690;9.466;2023-04-12T14:42:15;14.50;99.90
18974;DHT22;9621;48.690;9.466;2023-04-12T14:44:42;14.40;99.90
18974;DHT22;9621;48.690;9.466;2023-04-12T14:47:09;14.40;99.90
18974;DHT22;9621;48.690;9.466;2023-04-12T14:49:35;14.30;99.90
18974;DHT22;9621;48.690;9.466;2023-04-12T14:52:02;14.40;99.90
18974;DHT22;9621;48.690;9.466;2023-04-12T14:54:34;14.40;99.90
18974;DHT22;9621;48.690;9.466;2023-04-12T14:57:00;14.40;99.90
18974;DHT22;9621;48.690;9.466;2023-04-12T14:59:28;14.50;99.90
18974;DHT22;9621;48.690;9.466;2023-04-12T15:01:55;14.50;99.90
18974;DHT22;9621;48.690;9.466;2023-04-12T15:04:23;14.50;99.90
18974;DHT22;9621;48.690;9.466;2023-04-12T15:06:50;14.50;99.90
18974;DHT22;9621;48.690;9.466;2023-04-12T15:09:18;14.50;99.90
18974;DHT22;9621;48.690;9.466;2023-04-12T15:11:50;14.50;99.90
18974;DHT22;9621;48.690;9.466;2023-04-12T15:14:21;14.50;99.90
18974;DHT22;9621;48.690;9.466;2023-04-12T15:16:48;14.50;99.90
18974;DHT22;9621;48.690;9.466;2023-04-12T15:19:15;14.50;99.90
18974;DHT22;9621;48.690;9.466;2023-04-12T15:21:44;14.60;99.90
18974;DHT22;9621;48.690;9.466;2023-04-12T15:24:11;14.60;99.90
18974;DHT22;9621;48.690;9.466;2023-04-12T15:26:38;14.70;99.90
18974;DHT22;9621;48.690;9.466;2023-04-12T15:29:07;14.80;99.90
18974;DHT22;9621;48.690;9.466;2023-04-12T15:31:34;14.80;99.90
18974;DHT22;9621;48.690;9.466;2023-04-12T15:34:01;14.80;99.90
18974;DHT22;9621;48.690;9.466;2023-04-12T15:36:28;14.80;99.90
18974;DHT22;9621;48.690;9.466;2023-04-12T15:38:59;14.80;99.90
18974;DHT22;9621;48.690;9.466;2023-04-12T15:41:32;14.80;99.90
18974;DHT22;9621;48.690;9.466;2023-04-12T15:43:59;14.80;99.90
18974;DHT22;9621;48.690;9.466;2023-04-12T15:46:27;14.70;99.90
18974;DHT22;9621;48.690;9.466;2023-04-12T15:48:57;14.60;99.90
18974;DHT22;9621;48.690;9.466;2023-04-12T15:51:27;14.40;99.90
18974;DHT22;9621;48.690;9.466;2023-04-12T15:53:54;14.00;99.90
18974;DHT22;9621;48.690;9.466;2023-04-12T15:56:21;13.50;99.90
18974;DHT22;9621;48.690;9.466;2023-04-12T15:58:49;12.90;99.90
18974;DHT22;9621;48.690;9.466;2023-04-12T16:01:16;12.20;99.90
18974;DHT22;9621;48.690;9.466;2023-04-12T16:03:45;11.60;99.90
18974;DHT22;9621;48.690;9.466;2023-04-12T16:06:16;11.10;99.90